createdAt,value
2022-08-02T00:00:57.299Z,99453.72
2022-08-02T00:01:59.776Z,99449.97
2022-08-02T00:03:02.203Z,99453.13
2022-08-02T00:04:04.668Z,99452.25
2022-08-02T00:05:08.418Z,99453.59
2022-08-02T00:06:10.865Z,99450.50
2022-08-02T00:07:15.010Z,99442.75
2022-08-02T00:08:17.367Z,99449.88
2022-08-02T00:09:19.732Z,99449.28
2022-08-02T00:10:23.832Z,99451.81
2022-08-02T00:11:26.241Z,99454.50
2022-08-02T00:12:28.555Z,99448.66
2022-08-02T00:13:30.915Z,99443.16
2022-08-02T00:14:33.367Z,99453.56
2022-08-02T00:15:35.753Z,99436.16
2022-08-02T00:16:38.699Z,99443.41
2022-08-02T00:17:41.092Z,99441.94
2022-08-02T00:18:44.410Z,99448.25
2022-08-02T00:19:46.827Z,99449.56
2022-08-02T00:20:49.150Z,99445.34
2022-08-02T00:21:51.649Z,99442.06
2022-08-02T00:22:53.928Z,99447.47
2022-08-02T00:24:03.355Z,99453.00
2022-08-02T00:25:18.408Z,99452.59
2022-08-02T00:26:20.787Z,99454.06
2022-08-02T00:27:23.063Z,99454.31
2022-08-02T00:28:27.358Z,99453.94
2022-08-02T00:29:31.277Z,99452.72
2022-08-02T00:30:33.613Z,99455.53
2022-08-02T00:31:35.976Z,99452.50
2022-08-02T00:32:38.316Z,99460.34
2022-08-02T00:34:05.317Z,99462.63
2022-08-02T00:35:02.871Z,99466.53
2022-08-02T00:36:05.172Z,99450.44
2022-08-02T00:37:07.634Z,99459.91
2022-08-02T00:38:09.859Z,99457.53
2022-08-02T00:39:34.665Z,99458.03
2022-08-02T00:40:34.568Z,99454.19
2022-08-02T00:41:45.878Z,99454.47
2022-08-02T00:42:59.830Z,99452.72
2022-08-02T00:44:02.087Z,99450.69
2022-08-02T00:45:04.789Z,99455.81
2022-08-02T00:46:07.025Z,99451.19
2022-08-02T00:47:09.587Z,99458.69
2022-08-02T00:48:13.355Z,99450.59
2022-08-02T00:49:15.743Z,99458.59
2022-08-02T00:50:19.087Z,99453.13
2022-08-02T00:51:21.318Z,99447.94
2022-08-02T00:52:24.252Z,99450.06
2022-08-02T00:53:26.581Z,99450.78
2022-08-02T00:54:28.941Z,99455.13
2022-08-02T00:55:32.540Z,99458.41
2022-08-02T00:56:35.422Z,99460.34
2022-08-02T00:57:37.810Z,99457.28
2022-08-02T00:58:40.053Z,99445.97
2022-08-02T00:59:42.379Z,99452.78
2022-08-02T01:00:44.712Z,99455.56
2022-08-02T01:01:56.366Z,99456.72
2022-08-02T01:02:59.993Z,99453.53
2022-08-02T01:04:02.242Z,99453.13
2022-08-02T01:05:05.141Z,99462.81
2022-08-02T01:06:11.421Z,99462.19
2022-08-02T01:07:14.619Z,99472.28
2022-08-02T01:08:17.579Z,99464.31
2022-08-02T01:09:19.905Z,99472.19
2022-08-02T01:10:22.275Z,99460.81
2022-08-02T01:11:24.785Z,99472.84
2022-08-02T01:12:27.725Z,99464.50
2022-08-02T01:13:30.010Z,99470.22
2022-08-02T01:14:32.328Z,99473.19
2022-08-02T01:15:40.845Z,99474.47
2022-08-02T01:16:49.867Z,99475.03
2022-08-02T01:17:58.224Z,99478.66
2022-08-02T01:19:26.224Z,99475.78
2022-08-02T01:20:39.348Z,99477.06
2022-08-02T01:22:16.780Z,99478.78
2022-08-02T01:23:43.802Z,99479.50
2022-08-02T01:25:09.080Z,99482.13
2022-08-02T01:26:14.159Z,99482.63
2022-08-02T01:27:20.442Z,99484.34
2022-08-02T01:28:50.780Z,99478.38
2022-08-02T01:29:59.567Z,99485.09
2022-08-02T01:31:14.262Z,99483.19
2022-08-02T01:32:23.571Z,99482.31
2022-08-02T01:33:43.146Z,99480.47
2022-08-02T01:34:51.875Z,99484.53
2022-08-02T01:35:57.649Z,99479.84
2022-08-02T01:37:11.211Z,99486.84
2022-08-02T01:38:32.855Z,99483.34
2022-08-02T01:39:38.986Z,99493.72
2022-08-02T01:40:44.381Z,99487.31
2022-08-02T01:41:48.537Z,99482.38
2022-08-02T01:43:00.795Z,99488.78
2022-08-02T01:44:05.007Z,99472.81
2022-08-02T01:45:09.154Z,99495.25
2022-08-02T01:46:13.964Z,99499.19
2022-08-02T01:47:24.245Z,99487.91
2022-08-02T01:48:29.608Z,99495.03
2022-08-02T01:49:33.658Z,99496.47
2022-08-02T01:50:38.116Z,99501.69
2022-08-02T01:52:01.690Z,99503.16
2022-08-02T01:53:08.224Z,99500.63
2022-08-02T01:54:14.489Z,99500.84
2022-08-02T01:55:23.097Z,99505.84
2022-08-02T01:56:39.130Z,99501.44
2022-08-02T01:57:46.409Z,99504.88
2022-08-02T01:58:49.144Z,99492.63
2022-08-02T01:59:54.839Z,99494.22
2022-08-02T02:00:59.456Z,99500.38
2022-08-02T02:02:03.081Z,99487.72
2022-08-02T02:03:08.059Z,99486.44
2022-08-02T02:04:16.294Z,99489.81
2022-08-02T02:05:20.663Z,99484.28
2022-08-02T02:06:24.111Z,99491.44
2022-08-02T02:07:27.427Z,99492.84
2022-08-02T02:08:34.454Z,99469.56
2022-08-02T02:09:49.262Z,99479.25
2022-08-02T02:10:54.225Z,99479.94
2022-08-02T02:12:11.835Z,99475.63
2022-08-02T02:13:18.517Z,99477.28
2022-08-02T02:14:21.844Z,99483.47
2022-08-02T02:15:25.432Z,99486.00
2022-08-02T02:16:30.392Z,99484.19
2022-08-02T02:18:11.422Z,99482.19
2022-08-02T02:18:56.949Z,99475.59
2022-08-02T02:20:02.369Z,99474.13
2022-08-02T02:21:04.935Z,99479.03
2022-08-02T02:22:07.265Z,99483.50
2022-08-02T02:23:11.182Z,99475.97
2022-08-02T02:24:15.707Z,99469.72
2022-08-02T02:25:36.048Z,99473.13
2022-08-02T02:26:52.431Z,99477.84
2022-08-02T02:28:02.823Z,99468.25
2022-08-02T02:29:08.813Z,99462.94
2022-08-02T02:30:12.265Z,99457.00
2022-08-02T02:31:20.126Z,99460.53
2022-08-02T02:32:24.978Z,99460.72
2022-08-02T02:33:30.603Z,99464.41
2022-08-02T02:34:37.778Z,99460.66
2022-08-02T02:35:42.112Z,99458.41
2022-08-02T02:36:50.555Z,99462.59
2022-08-02T02:37:54.750Z,99456.47
2022-08-02T02:39:04.066Z,99469.22
2022-08-02T02:40:08.481Z,99455.81
2022-08-02T02:41:12.837Z,99473.72
2022-08-02T02:42:17.477Z,99465.84
2022-08-02T02:43:21.542Z,99466.91
2022-08-02T02:44:24.742Z,99468.94
2022-08-02T02:45:28.005Z,99468.91
2022-08-02T02:46:31.238Z,99472.13
2022-08-02T02:47:40.725Z,99469.16
2022-08-02T02:48:44.175Z,99471.06
2022-08-02T02:49:49.981Z,99471.72
2022-08-02T02:50:53.595Z,99471.59
2022-08-02T02:51:57.399Z,99467.13
2022-08-02T02:53:01.169Z,99465.41
2022-08-02T02:54:33.643Z,99468.94
2022-08-02T02:55:28.518Z,99458.72
2022-08-02T02:56:31.085Z,99464.75
2022-08-02T02:57:34.025Z,99467.84
2022-08-02T02:58:38.605Z,99456.28
2022-08-02T02:59:42.949Z,99458.84
2022-08-02T03:01:10.842Z,99459.47
2022-08-02T03:02:14.523Z,99462.75
2022-08-02T03:03:19.597Z,99468.06
2022-08-02T03:04:25.000Z,99463.06
2022-08-02T03:05:27.486Z,99460.75
2022-08-02T03:06:30.620Z,99465.63
2022-08-02T03:07:34.215Z,99451.69
2022-08-02T03:08:36.527Z,99462.75
2022-08-02T03:09:39.259Z,99456.81
2022-08-02T03:10:44.235Z,99460.84
2022-08-02T03:11:46.794Z,99466.13
2022-08-02T03:12:49.653Z,99462.91
2022-08-02T03:13:53.423Z,99468.44
2022-08-02T03:14:57.520Z,99458.97
2022-08-02T03:16:00.317Z,99470.97
2022-08-02T03:17:02.599Z,99458.22
2022-08-02T03:18:05.188Z,99464.63
2022-08-02T03:19:07.455Z,99460.09
2022-08-02T03:20:12.866Z,99474.22
2022-08-02T03:21:15.340Z,99476.91
2022-08-02T03:22:17.616Z,99473.72
2022-08-02T03:23:19.883Z,99475.19
2022-08-02T03:24:27.837Z,99474.47
2022-08-02T03:25:30.799Z,99475.09
2022-08-02T03:26:33.070Z,99484.75
2022-08-02T03:27:35.536Z,99481.16
2022-08-02T03:28:37.892Z,99469.16
2022-08-02T03:29:40.177Z,99477.84
2022-08-02T03:30:42.495Z,99483.59
2022-08-02T03:31:46.418Z,99478.50
2022-08-02T03:32:48.949Z,99478.94
2022-08-02T03:33:51.757Z,99484.25
2022-08-02T03:34:54.649Z,99479.25
2022-08-02T03:36:01.466Z,99489.47
2022-08-02T03:37:04.161Z,99486.03
2022-08-02T03:38:07.487Z,99488.28
2022-08-02T03:39:10.794Z,99488.16
2022-08-02T03:40:13.536Z,99489.88
2022-08-02T03:41:18.678Z,99490.38
2022-08-02T03:42:25.428Z,99482.66
2022-08-02T03:43:29.007Z,99485.19
2022-08-02T03:44:32.038Z,99487.09
2022-08-02T03:45:34.762Z,99490.88
2022-08-02T03:46:39.524Z,99480.75
2022-08-02T03:47:43.377Z,99488.28
2022-08-02T03:48:47.677Z,99486.78
2022-08-02T03:49:51.424Z,99484.03
2022-08-02T03:50:54.640Z,99480.66
2022-08-02T03:51:57.098Z,99483.97
2022-08-02T03:52:59.925Z,99491.28
2022-08-02T03:54:03.299Z,99477.44
2022-08-02T03:55:05.765Z,99480.94
2022-08-02T03:56:09.448Z,99488.38
2022-08-02T03:57:11.956Z,99485.88
2022-08-02T03:58:21.700Z,99487.13
2022-08-02T03:59:23.979Z,99477.56
2022-08-02T04:00:26.297Z,99486.31
2022-08-02T04:01:28.647Z,99490.31
2022-08-02T04:02:31.011Z,99490.41
2022-08-02T04:03:33.332Z,99483.31
2022-08-02T04:04:35.719Z,99493.16
2022-08-02T04:05:38.247Z,99488.19
2022-08-02T04:07:00.554Z,99488.28
2022-08-02T04:08:36.263Z,99488.75
2022-08-02T04:09:25.581Z,99474.75
2022-08-02T04:10:27.853Z,99489.47
2022-08-02T04:11:32.807Z,99486.34
2022-08-02T04:12:35.260Z,99486.44
2022-08-02T04:13:38.748Z,99486.25
2022-08-02T04:14:41.451Z,99487.22
2022-08-02T04:15:44.573Z,99486.53
2022-08-02T04:16:52.701Z,99498.41
2022-08-02T04:17:59.447Z,99493.34
2022-08-02T04:19:03.798Z,99490.59
2022-08-02T04:20:12.964Z,99500.94
2022-08-02T04:21:19.417Z,99500.06
2022-08-02T04:22:40.364Z,99508.25
2022-08-02T04:23:45.432Z,99502.81
2022-08-02T04:24:51.836Z,99502.31
2022-08-02T04:25:55.584Z,99495.66
2022-08-02T04:27:19.081Z,99503.16
2022-08-02T04:28:27.760Z,99494.38
2022-08-02T04:29:32.992Z,99500.44
2022-08-02T04:30:36.847Z,99507.06
2022-08-02T04:31:40.369Z,99503.34
2022-08-02T04:32:45.479Z,99499.13
2022-08-02T04:33:47.889Z,99502.41
2022-08-02T04:35:17.741Z,99499.81
2022-08-02T04:36:14.947Z,99512.81
2022-08-02T04:37:34.609Z,99517.34
2022-08-02T04:38:37.065Z,99510.88
2022-08-02T04:39:42.557Z,99511.53
2022-08-02T04:40:55.825Z,99520.31
2022-08-02T04:41:58.283Z,99518.97
2022-08-02T04:43:00.638Z,99509.53
2022-08-02T04:44:03.125Z,99502.19
2022-08-02T04:45:07.187Z,99508.31
2022-08-02T04:46:09.587Z,99506.75
2022-08-02T04:47:12.058Z,99517.63
2022-08-02T04:48:14.391Z,99509.69
2022-08-02T04:49:16.753Z,99512.94
2022-08-02T04:50:20.881Z,99512.34
2022-08-02T04:51:23.126Z,99519.53
2022-08-02T04:52:45.530Z,99519.97
2022-08-02T04:53:48.236Z,99518.41
2022-08-02T04:54:51.277Z,99523.28
2022-08-02T04:55:53.618Z,99523.44
2022-08-02T04:56:55.837Z,99523.28
2022-08-02T04:57:59.162Z,99517.22
2022-08-02T04:59:01.582Z,99519.72
2022-08-02T05:00:06.099Z,99516.09
2022-08-02T05:01:08.442Z,99515.28
2022-08-02T05:02:10.984Z,99529.22
2022-08-02T05:03:14.584Z,99523.63
2022-08-02T05:04:16.811Z,99518.13
2022-08-02T05:05:19.192Z,99514.84
2022-08-02T05:06:21.480Z,99508.06
2022-08-02T05:07:23.789Z,99517.91
2022-08-02T05:08:26.146Z,99516.66
2022-08-02T05:09:28.661Z,99527.22
2022-08-02T05:10:30.937Z,99524.06
2022-08-02T05:11:36.519Z,99516.00
2022-08-02T05:12:40.161Z,99504.94
2022-08-02T05:13:58.723Z,99507.13
2022-08-02T05:15:01.983Z,99514.41
2022-08-02T05:16:04.654Z,99504.31
2022-08-02T05:17:06.917Z,99512.22
2022-08-02T05:18:09.378Z,99502.25
2022-08-02T05:19:11.719Z,99517.47
2022-08-02T05:20:14.608Z,99516.78
2022-08-02T05:21:16.929Z,99516.97
2022-08-02T05:22:19.273Z,99526.38
2022-08-02T05:23:21.698Z,99535.31
2022-08-02T05:24:24.065Z,99530.34
2022-08-02T05:25:26.529Z,99536.88
2022-08-02T05:26:28.844Z,99523.09
2022-08-02T05:27:33.086Z,99538.06
2022-08-02T05:28:35.365Z,99530.34
2022-08-02T05:29:39.003Z,99527.41
2022-08-02T05:30:55.543Z,99522.25
2022-08-02T05:31:57.859Z,99511.97
2022-08-02T05:33:00.167Z,99511.44
2022-08-02T05:34:02.456Z,99515.72
2022-08-02T05:35:05.110Z,99511.47
2022-08-02T05:36:09.416Z,99512.50
2022-08-02T05:37:12.187Z,99516.00
2022-08-02T05:38:16.147Z,99509.41
2022-08-02T05:39:18.930Z,99507.69
2022-08-02T05:40:25.943Z,99503.78
2022-08-02T05:41:28.674Z,99512.69
2022-08-02T05:42:33.751Z,99507.34
2022-08-02T05:43:36.081Z,99500.75
2022-08-02T05:44:38.375Z,99513.28
2022-08-02T05:45:41.416Z,99513.63
2022-08-02T05:46:43.962Z,99512.25
2022-08-02T05:47:46.395Z,99519.72
2022-08-02T05:48:49.099Z,99524.28
2022-08-02T05:49:51.662Z,99526.97
2022-08-02T05:51:03.997Z,99522.06
2022-08-02T05:52:09.273Z,99523.56
2022-08-02T05:53:30.212Z,99520.19
2022-08-02T05:54:53.646Z,99530.03
2022-08-02T05:56:08.842Z,99542.78
2022-08-02T05:57:46.096Z,99529.69
2022-08-02T05:58:57.399Z,99532.22
2022-08-02T06:00:11.469Z,99541.38
2022-08-02T06:01:27.327Z,99534.41
2022-08-02T06:02:44.018Z,99537.41
2022-08-02T06:03:52.113Z,99545.59
2022-08-02T06:05:05.707Z,99538.19
2022-08-02T06:06:14.089Z,99547.50
2022-08-02T06:07:19.636Z,99545.66
2022-08-02T06:08:26.187Z,99538.31
2022-08-02T06:09:29.398Z,99537.78
2022-08-02T06:10:32.077Z,99538.41
2022-08-02T06:11:37.110Z,99532.00
2022-08-02T06:13:01.359Z,99540.56
2022-08-02T06:14:05.690Z,99529.72
2022-08-02T06:15:08.429Z,99528.91
2022-08-02T06:16:14.111Z,99530.13
2022-08-02T06:17:18.072Z,99518.19
2022-08-02T06:18:28.178Z,99520.63
2022-08-02T06:19:47.051Z,99518.03
2022-08-02T06:20:58.650Z,99526.44
2022-08-02T06:22:33.597Z,99517.69
2022-08-02T06:23:42.148Z,99521.13
2022-08-02T06:25:02.442Z,99522.81
2022-08-02T06:26:07.773Z,99527.16
2022-08-02T06:27:13.461Z,99525.47
2022-08-02T06:28:17.071Z,99521.22
2022-08-02T06:29:21.067Z,99529.53
2022-08-02T06:30:26.120Z,99520.81
2022-08-02T06:31:28.872Z,99521.50
2022-08-02T06:32:34.251Z,99523.91
2022-08-02T06:33:36.832Z,99522.81
2022-08-02T06:34:39.943Z,99516.69
2022-08-02T06:35:51.976Z,99520.03
2022-08-02T06:37:13.946Z,99518.09
2022-08-02T06:38:24.156Z,99535.38
2022-08-02T06:39:40.556Z,99520.88
2022-08-02T06:41:12.687Z,99521.88
2022-08-02T06:42:28.841Z,99532.44
2022-08-02T06:43:54.500Z,99521.75
2022-08-02T06:44:58.398Z,99528.91
2022-08-02T06:47:09.530Z,99537.91
2022-08-02T06:47:25.165Z,99528.34
2022-08-02T06:48:27.514Z,99528.47
2022-08-02T06:49:51.347Z,99526.97
2022-08-02T06:50:52.318Z,99521.81
2022-08-02T06:51:54.826Z,99533.44
2022-08-02T06:52:57.246Z,99528.06
2022-08-02T06:53:59.565Z,99523.00
2022-08-02T06:55:04.271Z,99520.91
2022-08-02T06:56:07.167Z,99522.81
2022-08-02T06:57:11.469Z,99521.69
2022-08-02T06:58:14.249Z,99524.69
2022-08-02T06:59:16.561Z,99524.25
2022-08-02T07:00:18.875Z,99525.56
2022-08-02T07:01:21.576Z,99529.00
2022-08-02T07:02:24.455Z,99530.59
2022-08-02T07:03:26.961Z,99513.63
2022-08-02T07:04:29.629Z,99528.00
2022-08-02T07:05:32.014Z,99518.25
2022-08-02T07:06:34.407Z,99523.66
2022-08-02T07:07:36.921Z,99514.13
2022-08-02T07:08:39.583Z,99523.78
2022-08-02T07:09:56.783Z,99534.13
2022-08-02T07:11:04.042Z,99527.78
2022-08-02T07:12:07.673Z,99526.38
2022-08-02T07:13:10.820Z,99533.38
2022-08-02T07:14:13.232Z,99526.75
2022-08-02T07:15:16.443Z,99528.28
2022-08-02T07:16:18.926Z,99527.56
2022-08-02T07:17:21.332Z,99541.06
2022-08-02T07:18:24.604Z,99532.16
2022-08-02T07:19:37.456Z,99538.78
2022-08-02T07:20:44.275Z,99531.19
2022-08-02T07:21:57.760Z,99535.41
2022-08-02T07:23:03.234Z,99537.88
2022-08-02T07:24:05.808Z,99549.97
2022-08-02T07:25:09.079Z,99544.19
2022-08-02T07:26:11.445Z,99545.34
2022-08-02T07:27:13.935Z,99540.63
2022-08-02T07:28:24.086Z,99549.44
2022-08-02T07:29:27.134Z,99554.25
2022-08-02T07:30:36.166Z,99550.59
2022-08-02T07:31:38.530Z,99558.47
2022-08-02T07:32:40.945Z,99554.81
2022-08-02T07:33:46.794Z,99555.66
2022-08-02T07:34:52.523Z,99562.66
2022-08-02T07:35:57.994Z,99549.44
2022-08-02T07:37:04.393Z,99563.53
2022-08-02T07:38:09.585Z,99559.84
2022-08-02T07:39:12.919Z,99558.38
2022-08-02T07:40:19.996Z,99554.25
2022-08-02T07:41:22.937Z,99550.59
2022-08-02T07:42:25.689Z,99552.03
2022-08-02T07:43:28.161Z,99550.53
2022-08-02T07:44:34.716Z,99552.72
2022-08-02T07:45:45.807Z,99552.06
2022-08-02T07:46:59.617Z,99549.38
2022-08-02T07:48:02.053Z,99547.28
2022-08-02T07:49:04.581Z,99549.34
2022-08-02T07:50:07.776Z,99548.09
2022-08-02T07:51:13.008Z,99547.84
2022-08-02T07:52:20.643Z,99548.88
2022-08-02T07:53:50.142Z,99554.50
2022-08-02T07:54:45.339Z,99561.13
2022-08-02T07:55:47.594Z,99556.06
2022-08-02T07:56:57.470Z,99555.28
2022-08-02T07:58:01.283Z,99561.00
2022-08-02T07:59:05.028Z,99546.31
2022-08-02T08:00:09.695Z,99553.53
2022-08-02T08:01:14.927Z,99552.09
2022-08-02T08:02:17.926Z,99568.78
2022-08-02T08:03:20.182Z,99550.72
2022-08-02T08:04:22.504Z,99553.06
2022-08-02T08:05:24.850Z,99557.06
2022-08-02T08:06:28.902Z,99556.06
2022-08-02T08:07:31.484Z,99558.47
2022-08-02T08:08:35.014Z,99551.53
2022-08-02T08:09:41.943Z,99549.81
2022-08-02T08:10:44.758Z,99540.28
2022-08-02T08:11:47.176Z,99545.66
2022-08-02T08:12:49.592Z,99547.63
2022-08-02T08:13:52.119Z,99548.88
2022-08-02T08:14:54.508Z,99548.19
2022-08-02T08:15:56.921Z,99538.59
2022-08-02T08:16:59.349Z,99547.56
2022-08-02T08:18:03.225Z,99548.28
2022-08-02T08:19:05.873Z,99537.84
2022-08-02T08:20:11.757Z,99542.06
2022-08-02T08:21:16.415Z,99546.22
2022-08-02T08:22:19.617Z,99545.88
2022-08-02T08:23:22.122Z,99550.84
2022-08-02T08:24:24.390Z,99552.03
2022-08-02T08:25:27.184Z,99548.72
2022-08-02T08:26:29.899Z,99544.44
2022-08-02T08:27:32.227Z,99542.38
2022-08-02T08:28:35.583Z,99535.34
2022-08-02T08:29:37.962Z,99533.25
2022-08-02T08:30:42.043Z,99533.72
2022-08-02T08:31:44.369Z,99535.84
2022-08-02T08:32:46.696Z,99530.47
2022-08-02T08:33:48.966Z,99530.34
2022-08-02T08:34:51.391Z,99520.44
2022-08-02T08:35:54.482Z,99538.38
2022-08-02T08:36:57.308Z,99537.22
2022-08-02T08:38:02.051Z,99529.84
2022-08-02T08:39:08.769Z,99528.53
2022-08-02T08:40:12.353Z,99541.66
2022-08-02T08:41:17.197Z,99537.88
2022-08-02T08:42:19.568Z,99533.56
2022-08-02T08:43:21.988Z,99550.13
2022-08-02T08:44:24.414Z,99534.06
2022-08-02T08:45:26.939Z,99543.19
2022-08-02T08:46:34.493Z,99537.06
2022-08-02T08:47:42.791Z,99532.28
2022-08-02T08:48:48.653Z,99533.06
2022-08-02T08:49:54.936Z,99532.31
2022-08-02T08:51:04.553Z,99530.59
2022-08-02T08:52:07.755Z,99525.81
2022-08-02T08:53:15.637Z,99532.22
2022-08-02T08:54:18.953Z,99531.66
2022-08-02T08:55:26.691Z,99527.81
2022-08-02T08:56:33.018Z,99529.13
2022-08-02T08:57:39.859Z,99520.84
2022-08-02T08:58:44.211Z,99523.25
2022-08-02T08:59:46.529Z,99523.53
2022-08-02T09:00:49.184Z,99525.19
2022-08-02T09:01:55.490Z,99529.59
2022-08-02T09:02:58.802Z,99520.25
2022-08-02T09:04:01.745Z,99524.28
2022-08-02T09:05:04.375Z,99516.94
2022-08-02T09:06:06.817Z,99521.63
2022-08-02T09:07:09.389Z,99526.16
2022-08-02T09:08:16.696Z,99522.84
2022-08-02T09:09:19.389Z,99522.13
2022-08-02T09:10:34.669Z,99511.63
2022-08-02T09:11:36.924Z,99508.44
2022-08-02T09:12:39.234Z,99520.88
2022-08-02T09:13:50.875Z,99526.75
2022-08-02T09:14:53.184Z,99529.91
2022-08-02T09:16:12.170Z,99518.63
2022-08-02T09:17:15.664Z,99521.19
2022-08-02T09:18:18.562Z,99510.59
2022-08-02T09:19:26.843Z,99517.44
2022-08-02T09:20:30.870Z,99519.09
2022-08-02T09:21:37.987Z,99518.22
2022-08-02T09:22:40.299Z,99520.41
2022-08-02T09:23:52.991Z,99509.41
2022-08-02T09:24:55.378Z,99515.19
2022-08-02T09:26:01.614Z,99507.66
2022-08-02T09:27:12.108Z,99518.56
2022-08-02T09:28:15.072Z,99505.72
2022-08-02T09:29:19.262Z,99505.56
2022-08-02T09:30:26.890Z,99510.75
2022-08-02T09:31:29.159Z,99507.94
2022-08-02T09:32:43.889Z,99511.22
2022-08-02T09:33:52.735Z,99506.44
2022-08-02T09:34:55.214Z,99511.50
2022-08-02T09:36:08.575Z,99507.38
2022-08-02T09:37:25.285Z,99516.31
2022-08-02T09:38:28.684Z,99509.63
2022-08-02T09:39:46.620Z,99508.28
2022-08-02T09:40:50.559Z,99515.31
2022-08-02T09:41:53.220Z,99513.31
2022-08-02T09:42:59.358Z,99508.81
2022-08-02T09:44:06.466Z,99502.34
2022-08-02T09:45:09.602Z,99509.91
2022-08-02T09:46:16.560Z,99509.91
2022-08-02T09:47:18.913Z,99507.59
2022-08-02T09:48:21.185Z,99504.72
2022-08-02T09:49:23.607Z,99505.13
2022-08-02T09:50:25.921Z,99498.69
2022-08-02T09:51:31.066Z,99505.56
2022-08-02T09:52:37.356Z,99506.53
2022-08-02T09:53:46.785Z,99501.53
2022-08-02T09:54:48.946Z,99493.69
2022-08-02T09:55:57.691Z,99503.31
2022-08-02T09:57:01.836Z,99499.38
2022-08-02T09:58:20.563Z,99496.50
2022-08-02T09:59:25.088Z,99491.31
2022-08-02T10:00:50.841Z,99487.94
2022-08-02T10:02:01.555Z,99488.56
2022-08-02T10:03:21.752Z,99496.22
2022-08-02T10:04:27.036Z,99494.03
2022-08-02T10:05:32.188Z,99492.22
2022-08-02T10:06:42.326Z,99499.00
2022-08-02T10:07:44.925Z,99493.09
2022-08-02T10:08:47.855Z,99481.09
2022-08-02T10:09:51.909Z,99493.13
2022-08-02T10:11:01.612Z,99490.06
2022-08-02T10:12:05.562Z,99488.81
2022-08-02T10:13:08.814Z,99488.31
2022-08-02T10:14:12.274Z,99486.44
2022-08-02T10:15:16.471Z,99477.41
2022-08-02T10:16:23.450Z,99482.75
2022-08-02T10:17:26.318Z,99491.13
2022-08-02T10:18:38.928Z,99483.56
2022-08-02T10:20:03.127Z,99480.50
2022-08-02T10:21:10.241Z,99477.84
2022-08-02T10:22:15.422Z,99499.44
2022-08-02T10:23:21.315Z,99485.59
2022-08-02T10:24:27.942Z,99485.31
2022-08-02T10:25:31.314Z,99483.47
2022-08-02T10:26:34.681Z,99485.13
2022-08-02T10:28:03.636Z,99480.81
2022-08-02T10:29:01.689Z,99490.66
2022-08-02T10:30:04.546Z,99488.91
2022-08-02T10:31:08.121Z,99479.47
2022-08-02T10:32:13.970Z,99485.34
2022-08-02T10:33:19.283Z,99473.56
2022-08-02T10:34:24.886Z,99485.25
2022-08-02T10:35:38.069Z,99481.09
2022-08-02T10:36:42.218Z,99476.88
2022-08-02T10:37:47.806Z,99481.78
2022-08-02T10:38:50.704Z,99477.13
2022-08-02T10:39:56.927Z,99482.16
2022-08-02T10:40:59.442Z,99485.13
2022-08-02T10:42:01.755Z,99472.28
2022-08-02T10:43:04.112Z,99472.84
2022-08-02T10:44:06.542Z,99459.88
2022-08-02T10:45:26.988Z,99459.66
2022-08-02T10:46:34.819Z,99470.09
2022-08-02T10:47:37.477Z,99466.78
2022-08-02T10:49:13.772Z,99455.66
2022-08-02T10:50:45.702Z,99464.50
2022-08-02T10:52:03.324Z,99461.78
2022-08-02T10:53:28.750Z,99456.19
2022-08-02T10:54:37.129Z,99459.38
2022-08-02T10:55:46.217Z,99458.97
2022-08-02T10:56:50.628Z,99462.16
2022-08-02T10:58:26.305Z,99456.38
2022-08-02T10:59:36.291Z,99452.09
2022-08-02T11:00:38.932Z,99449.84
2022-08-02T11:01:44.456Z,99447.75
2022-08-02T11:02:53.242Z,99441.94
2022-08-02T11:04:00.372Z,99445.31
2022-08-02T11:05:12.599Z,99447.91
2022-08-02T11:06:25.957Z,99446.34
2022-08-02T11:07:35.200Z,99446.09
2022-08-02T11:08:37.794Z,99440.53
2022-08-02T11:09:42.048Z,99446.44
2022-08-02T11:10:44.541Z,99431.53
2022-08-02T11:12:02.379Z,99431.38
2022-08-02T11:13:16.870Z,99440.53
2022-08-02T11:14:19.268Z,99441.13
2022-08-02T11:15:21.691Z,99435.50
2022-08-02T11:16:56.153Z,99443.66
2022-08-02T11:18:01.634Z,99447.09
2022-08-02T11:19:06.691Z,99431.28
2022-08-02T11:20:12.132Z,99440.16
2022-08-02T11:21:21.010Z,99428.56
2022-08-02T11:22:25.809Z,99429.47
2022-08-02T11:23:44.219Z,99438.66
2022-08-02T11:24:48.220Z,99432.19
2022-08-02T11:26:03.528Z,99428.59
2022-08-02T11:27:08.945Z,99431.28
2022-08-02T11:28:12.216Z,99430.88
2022-08-02T11:29:15.808Z,99433.16
2022-08-02T11:30:19.800Z,99432.59
2022-08-02T11:31:38.767Z,99430.28
2022-08-02T11:32:41.588Z,99419.41
2022-08-02T11:33:44.152Z,99423.22
2022-08-02T11:34:49.019Z,99422.25
2022-08-02T11:35:51.931Z,99411.72
2022-08-02T11:36:54.270Z,99415.50
2022-08-02T11:37:58.625Z,99417.53
2022-08-02T11:39:15.746Z,99420.38
2022-08-02T11:40:19.549Z,99426.84
2022-08-02T11:41:46.516Z,99425.78
2022-08-02T11:42:47.843Z,99421.38
2022-08-02T11:43:56.188Z,99423.22
2022-08-02T11:44:58.715Z,99420.75
2022-08-02T11:46:05.011Z,99420.63
2022-08-02T11:47:08.352Z,99423.13
2022-08-02T11:48:10.773Z,99417.28
2022-08-02T11:49:18.345Z,99408.81
2022-08-02T11:50:29.977Z,99420.81
2022-08-02T11:51:32.959Z,99417.59
2022-08-02T11:52:36.029Z,99422.25
2022-08-02T11:53:42.647Z,99422.00
2022-08-02T11:54:45.279Z,99423.59
2022-08-02T11:55:47.598Z,99414.59
2022-08-02T11:56:49.918Z,99414.88
2022-08-02T11:58:04.738Z,99413.47
2022-08-02T11:59:10.259Z,99416.13
2022-08-02T12:00:18.374Z,99413.44
2022-08-02T12:01:20.832Z,99415.69
2022-08-02T12:02:32.638Z,99418.31
2022-08-02T12:03:39.236Z,99401.63
2022-08-02T12:04:42.181Z,99407.66
2022-08-02T12:06:05.276Z,99414.44
2022-08-02T12:07:10.023Z,99413.50
2022-08-02T12:08:12.288Z,99407.28
2022-08-02T12:09:19.039Z,99420.81
2022-08-02T12:10:24.105Z,99411.00
2022-08-02T12:11:26.425Z,99417.63
2022-08-02T12:12:56.259Z,99418.88
2022-08-02T12:13:59.689Z,99409.41
2022-08-02T12:15:02.031Z,99408.06
2022-08-02T12:16:31.154Z,99407.56
2022-08-02T12:17:52.419Z,99405.44
2022-08-02T12:19:14.329Z,99409.09
2022-08-02T12:20:17.288Z,99400.22
2022-08-02T12:21:25.382Z,99404.59
2022-08-02T12:22:28.087Z,99403.09
2022-08-02T12:23:30.679Z,99397.38
2022-08-02T12:24:33.754Z,99403.78
2022-08-02T12:25:36.168Z,99404.38
2022-08-02T12:26:45.965Z,99398.63
2022-08-02T12:27:50.689Z,99404.41
2022-08-02T12:28:57.807Z,99399.38
2022-08-02T12:30:06.332Z,99400.50
2022-08-02T12:31:14.210Z,99413.00
2022-08-02T12:32:24.125Z,99406.50
2022-08-02T12:33:29.155Z,99392.63
2022-08-02T12:34:34.555Z,99406.91
2022-08-02T12:35:36.948Z,99403.91
2022-08-02T12:36:39.939Z,99411.72
2022-08-02T12:37:47.481Z,99403.03
2022-08-02T12:39:01.440Z,99405.78
2022-08-02T12:40:25.283Z,99403.50
2022-08-02T12:41:31.592Z,99403.00
2022-08-02T12:42:47.343Z,99399.88
2022-08-02T12:43:50.686Z,99395.53
2022-08-02T12:45:00.176Z,99385.94
2022-08-02T12:46:02.618Z,99391.66
2022-08-02T12:47:12.538Z,99385.25
2022-08-02T12:48:15.279Z,99384.19
2022-08-02T12:49:19.164Z,99390.31
2022-08-02T12:50:30.496Z,99394.06
2022-08-02T12:51:51.412Z,99381.56
2022-08-02T12:53:12.307Z,99378.34
2022-08-02T12:54:31.782Z,99381.97
2022-08-02T12:56:02.419Z,99385.38
2022-08-02T12:57:14.671Z,99379.25
2022-08-02T12:58:17.826Z,99381.41
2022-08-02T12:59:39.034Z,99377.09
2022-08-02T13:00:42.427Z,99368.13
2022-08-02T13:01:45.787Z,99377.94
2022-08-02T13:02:48.216Z,99374.28